Stations météo

réclame
Mon MeteoGroup
Milano/Linate, Italie (16081): Température de l'air & dewpoint: 13.10.2017 09:00:00 - 19.10.2017 09:00:00 (CEST)Milano/Linate, Italie (16081): Vitesse du vent: 13.10.2017 09:00:00 - 19.10.2017 09:00:00 (CEST)Milano/Linate, Italie (16081): Direction du vent: 13.10.2017 09:00:00 - 19.10.2017 09:00:00 (CEST)Milano/Linate, Italie (16081): reduced air pressure: 13.10.2017 09:00:00 - 19.10.2017 09:00:00 (CEST)Milano/Linate, Italie (16081): Quantités de précipitations: 13.10.2017 09:00:00 - 19.10.2017 09:00:00 (CEST)
Date & Time tt [°C] td [°C] ff [km/h] ff [knt] dd ppp [hPa] rr [mm]
19.10.2017 09:00:00 - - - - - - -
19.10.2017 08:00:00 13,1 13,0 2 1 SSW 1018,6 0,0
19.10.2017 07:00:00 12,8 12,8 2 1 E 1018,5 -
19.10.2017 06:00:00 12,2 12,2 0 0 N 1018,8 -
19.10.2017 05:00:00 11,9 11,9 0 0 N 1018,7 -
19.10.2017 04:00:00 11,2 11,2 0 0 N 1018,7 -
19.10.2017 03:00:00 11,7 11,7 0 0 N 1019,0 -
19.10.2017 02:00:00 12,1 12,1 0 0 N 1019,3 0,0
19.10.2017 01:00:00 12,4 12,4 0 0 N 1019,5 -
19.10.2017 00:00:00 12,8 12,5 0 0 N 1019,5 -
18.10.2017 23:00:00 13,3 12,8 0 0 N 1019,2 -
18.10.2017 22:00:00 13,9 13,2 2 1 NW 1018,7 -
18.10.2017 21:00:00 14,8 13,6 0 0 N 1018,3 -
18.10.2017 20:00:00 15,9 13,5 0 0 N 1017,9 0,0
18.10.2017 19:00:00 17,6 13,8 0 0 N 1017,5 -
18.10.2017 18:00:00 19,7 14,4 0 0 N 1017,2 -
18.10.2017 17:00:00 20,6 14,6 2 1 E 1017,3 -
18.10.2017 16:00:00 20,8 15,5 2 1 E 1017,5 -
18.10.2017 15:00:00 20,2 15,8 2 1 ESE 1018,2 -
18.10.2017 14:00:00 20,3 16,1 2 1 E 1019,0 0,0
18.10.2017 13:00:00 18,8 15,6 2 1 E 1019,9 -
18.10.2017 12:00:00 17,7 15,1 2 1 ESE 1020,3 -
18.10.2017 11:00:00 15,7 15,0 2 1 ESE 1020,5 -
18.10.2017 10:00:00 12,9 12,8 2 1 E 1020,9 -
18.10.2017 09:00:00 10,3 10,3 0 0 N 1021,0 -
18.10.2017 08:00:00 9,7 9,7 0 0 N 1020,8 0,0
18.10.2017 07:00:00 10,1 10,1 0 0 N 1021,1 -
18.10.2017 06:00:00 9,9 9,9 0 0 N 1021,1 -
18.10.2017 05:00:00 10,7 10,7 0 0 N 1021,4 -
18.10.2017 04:00:00 11,1 11,1 0 0 N 1021,6 -
18.10.2017 03:00:00 11,6 11,6 0 0 N 1022,1 -
18.10.2017 02:00:00 12,0 12,0 0 0 N 1022,3 0,0
18.10.2017 01:00:00 12,6 12,6 0 0 N 1022,4 -
18.10.2017 00:00:00 13,0 12,9 0 0 N 1022,9 -
17.10.2017 23:00:00 13,7 13,2 0 0 N 1022,9 -
17.10.2017 22:00:00 14,5 14,0 0 0 N 1022,9 -
17.10.2017 21:00:00 15,1 13,9 0 0 N 1022,8 -
17.10.2017 20:00:00 16,7 14,3 0 0 N 1022,7 0,0
17.10.2017 19:00:00 18,6 14,8 0 0 N 1022,4 -
17.10.2017 18:00:00 20,7 15,6 0 0 N 1022,4 -
17.10.2017 17:00:00 21,5 15,9 0 0 N 1022,6 -
17.10.2017 16:00:00 22,3 16,0 2 1 WSW 1023,1 -
17.10.2017 15:00:00 21,8 16,0 2 1 SSW 1023,7 -
17.10.2017 14:00:00 21,3 15,7 2 1 SE 1024,7 0,0
17.10.2017 13:00:00 21,1 16,8 2 1 SW 1025,6 -
17.10.2017 12:00:00 19,5 16,8 2 1 S 1026,1 -
17.10.2017 11:00:00 17,3 16,3 4 2 ESE 1026,5 -
17.10.2017 10:00:00 14,3 14,2 2 1 E 1026,8 -
17.10.2017 09:00:00 10,9 10,9 0 0 N 1026,8 -
17.10.2017 08:00:00 10,7 10,7 0 0 N 1026,4 0,0
17.10.2017 07:00:00 10,8 10,8 0 0 N 1026,3 -
17.10.2017 06:00:00 11,0 11,0 0 0 N 1026,4 -
17.10.2017 05:00:00 11,2 11,2 0 0 N 1026,5 -
17.10.2017 04:00:00 11,7 11,7 0 0 N 1026,6 -
17.10.2017 03:00:00 12,0 12,0 0 0 N 1026,9 -
17.10.2017 02:00:00 12,6 12,6 0 0 N 1027,0 0,0
17.10.2017 01:00:00 13,1 13,0 0 0 N 1027,2 -
17.10.2017 00:00:00 13,7 13,6 0 0 N 1027,3 -
16.10.2017 23:00:00 14,3 13,8 0 0 N 1027,2 -
16.10.2017 22:00:00 15,0 14,3 0 0 N 1026,9 -
16.10.2017 21:00:00 16,3 14,8 0 0 N 1026,7 -
16.10.2017 20:00:00 17,8 15,0 0 0 N 1026,4 0,0
16.10.2017 19:00:00 20,0 15,1 0 0 N 1025,8 -
16.10.2017 18:00:00 22,7 16,6 0 0 N 1025,6 -
16.10.2017 17:00:00 23,9 16,4 2 1 N 1025,7 -
16.10.2017 16:00:00 24,3 16,7 2 1 NNE 1026,0 -
16.10.2017 15:00:00 23,3 16,5 4 2 SW 1026,5 -
16.10.2017 14:00:00 23,0 17,4 4 2 WSW 1027,1 0,0
16.10.2017 13:00:00 21,9 17,6 4 2 S 1027,7 -
16.10.2017 12:00:00 21,1 18,2 4 2 SSW 1028,2 -
16.10.2017 11:00:00 18,6 17,6 2 1 S 1028,6 -
16.10.2017 10:00:00 15,3 15,2 0 0 N 1028,7 -
16.10.2017 09:00:00 11,3 11,3 0 0 N 1028,6 -
16.10.2017 08:00:00 10,8 10,8 0 0 N 1028,3 0,0
16.10.2017 07:00:00 11,2 11,2 0 0 N 1028,3 -
16.10.2017 06:00:00 11,3 11,3 0 0 N 1028,1 -
16.10.2017 05:00:00 11,8 11,8 0 0 N 1028,2 -
16.10.2017 04:00:00 12,0 12,0 0 0 N 1028,2 -
16.10.2017 03:00:00 12,5 12,5 0 0 N 1028,4 -
16.10.2017 02:00:00 13,0 12,9 0 0 N 1028,3 0,0
16.10.2017 01:00:00 13,4 13,3 0 0 N 1028,4 -
16.10.2017 00:00:00 13,9 13,8 0 0 N 1028,2 -
15.10.2017 23:00:00 14,7 14,2 0 0 N 1028,1 -
15.10.2017 22:00:00 15,6 15,1 0 0 N 1027,6 -
15.10.2017 21:00:00 16,9 15,7 0 0 N 1027,3 -
15.10.2017 20:00:00 18,4 15,6 0 0 N 1027,1 0,0
15.10.2017 19:00:00 20,6 15,9 0 0 N 1026,6 -
15.10.2017 18:00:00 22,8 16,5 0 0 N 1026,3 -
15.10.2017 17:00:00 24,0 16,9 2 1 SSW 1026,4 -
15.10.2017 16:00:00 24,2 17,4 4 2 SSW 1026,8 -
15.10.2017 15:00:00 23,5 17,6 4 2 W 1027,2 -
15.10.2017 14:00:00 23,2 17,6 4 2 SW 1028,1 0,0
15.10.2017 13:00:00 22,3 18,6 4 2 W 1028,7 -
15.10.2017 12:00:00 20,3 18,0 4 2 S 1029,3 -
15.10.2017 11:00:00 17,6 17,4 2 1 ESE 1029,6 -
15.10.2017 10:00:00 14,8 14,7 2 1 SE 1029,8 -
15.10.2017 09:00:00 11,9 11,9 0 0 N 1029,6 -
15.10.2017 08:00:00 11,3 11,3 0 0 N 1029,2 0,0
15.10.2017 07:00:00 11,8 11,8 0 0 N 1029,2 -
15.10.2017 06:00:00 12,0 12,0 0 0 N 1029,0 -
15.10.2017 05:00:00 12,2 12,2 0 0 N 1029,0 -
15.10.2017 04:00:00 12,7 12,7 0 0 N 1029,0 -
15.10.2017 03:00:00 13,2 13,1 0 0 N 1029,0 -
15.10.2017 02:00:00 13,7 13,6 0 0 N 1029,1 0,0
15.10.2017 01:00:00 14,2 14,1 0 0 N 1029,0 -
15.10.2017 00:00:00 14,7 14,6 2 1 NNW 1029,0 -
14.10.2017 23:00:00 15,1 14,6 0 0 N 1028,7 -
14.10.2017 22:00:00 15,9 14,9 0 0 N 1028,3 -
14.10.2017 21:00:00 16,8 15,8 0 0 N 1028,1 -
14.10.2017 20:00:00 18,2 15,8 0 0 N 1027,5 0,0
14.10.2017 19:00:00 20,1 16,1 0 0 N 1026,8 -
14.10.2017 18:00:00 22,4 17,2 0 0 N 1026,3 -
14.10.2017 17:00:00 23,0 16,9 4 2 ESE 1026,4 -
14.10.2017 16:00:00 23,6 17,3 2 1 SSW 1026,4 -
14.10.2017 15:00:00 22,9 17,3 2 1 SSW 1026,9 -
14.10.2017 14:00:00 22,5 17,8 2 1 SSW 1027,5 0,0
14.10.2017 13:00:00 21,6 17,7 2 1 SW 1028,2 -
14.10.2017 12:00:00 20,0 17,5 4 2 SSE 1028,5 -
14.10.2017 11:00:00 17,7 16,7 2 1 W 1028,7 -
14.10.2017 10:00:00 14,6 14,5 0 0 N 1028,7 -
14.10.2017 09:00:00 11,6 11,6 0 0 N 1028,4 -
14.10.2017 08:00:00 11,2 11,2 0 0 N 1027,9 0,0
14.10.2017 07:00:00 11,5 11,5 0 0 N 1027,8 -
14.10.2017 06:00:00 11,7 11,7 0 0 N 1027,5 -
14.10.2017 05:00:00 11,8 11,8 0 0 N 1027,4 -
14.10.2017 04:00:00 12,2 12,2 0 0 N 1027,4 -
14.10.2017 03:00:00 12,6 12,6 0 0 N 1027,5 -
14.10.2017 02:00:00 13,2 13,1 0 0 N 1027,2 0,0
14.10.2017 01:00:00 13,6 13,5 0 0 N 1027,0 -
14.10.2017 00:00:00 14,2 13,8 0 0 N 1026,8 -
13.10.2017 23:00:00 14,9 14,0 0 0 N 1026,7 -
13.10.2017 22:00:00 15,7 15,0 0 0 N 1026,2 -
13.10.2017 21:00:00 16,7 15,5 0 0 N 1026,1 -
13.10.2017 20:00:00 17,9 15,3 0 0 N 1025,7 0,0
13.10.2017 19:00:00 19,9 15,5 0 0 N 1025,1 -
13.10.2017 18:00:00 21,9 16,3 0 0 N 1024,9 -
13.10.2017 17:00:00 22,7 16,2 2 1 WNW 1025,0 -
13.10.2017 16:00:00 22,8 16,5 2 1 SE 1025,4 -
13.10.2017 15:00:00 22,3 17,2 4 2 WSW 1026,0 -
13.10.2017 14:00:00 21,2 17,1 2 1 E 1026,7 0,0
13.10.2017 13:00:00 19,9 17,0 2 1 ENE 1027,5 -
13.10.2017 12:00:00 18,4 16,8 2 1 WSW 1027,9 -
13.10.2017 11:00:00 16,5 15,8 4 2 E 1028,0 -
13.10.2017 10:00:00 14,0 13,9 0 0 N 1027,7 -
13.10.2017 09:00:00 11,4 11,4 0 0 N 1027,2 -

tt = Température de l'air
td = dewpoint
ff = Vitesse du vent
dd = Direction du vent
ppp = reduced air pressure
rr = Quantités de précipitations

stations d'obs. à proximité